Time;durP1;ratioP1;P1;durP2;ratioP2;P2;SDS_P1;SDS_P2;PMS_P1;PMS_P2;Temp;Humidity;BMP_temperature;BMP_pressure;BME280_temperature;BME280_humidity;BME280_pressure;Samples;Min_cycle;Max_cycle;Signal;HPM_P1;HPM_P2
2024/01/31 00:00:20;;;;;;;2.60;2.40;;;6.40;99.90;;;;;;5096529;28;20226;-71
2024/01/31 00:02:46;;;;;;;2.80;2.60;;;6.40;99.90;;;;;;5096386;28;20169;-69
2024/01/31 00:05:14;;;;;;;2.80;2.60;;;6.50;99.90;;;;;;5095807;28;20554;-70
2024/01/31 00:07:42;;;;;;;4.20;2.83;;;6.50;99.90;;;;;;5096389;28;20992;-69
2024/01/31 00:10:09;;;;;;;3.73;2.60;;;6.50;99.90;;;;;;5096387;28;20407;-75
2024/01/31 00:12:35;;;;;;;2.70;2.10;;;6.50;99.90;;;;;;5095793;28;20891;-71
2024/01/31 00:15:00;;;;;;;8.20;3.23;;;6.50;99.90;;;;;;5095255;28;20419;-78
2024/01/31 00:17:26;;;;;;;3.50;2.30;;;6.60;99.90;;;;;;5096303;28;20166;-69
2024/01/31 00:19:52;;;;;;;2.83;2.63;;;6.50;99.90;;;;;;5078385;28;20258;-78
2024/01/31 00:22:18;;;;;;;5.87;3.30;;;6.40;99.90;;;;;;5096239;28;20255;-68
2024/01/31 00:24:44;;;;;;;3.97;2.20;;;6.40;99.90;;;;;;5094997;28;20524;-75
2024/01/31 00:27:09;;;;;;;4.03;3.63;;;6.50;99.90;;;;;;5096217;28;20637;-78
2024/01/31 00:29:35;;;;;;;4.20;2.30;;;6.40;99.90;;;;;;5077343;28;20530;-76
2024/01/31 00:32:01;;;;;;;3.67;2.33;;;6.40;99.90;;;;;;5096145;28;20626;-76
2024/01/31 00:34:27;;;;;;;2.60;2.40;;;6.40;99.90;;;;;;5094963;28;20514;-74
2024/01/31 00:36:52;;;;;;;5.07;2.50;;;6.40;99.90;;;;;;5094780;28;20170;-69
2024/01/31 00:39:20;;;;;;;3.73;2.27;;;6.40;99.90;;;;;;5095983;28;20412;-71
2024/01/31 00:41:47;;;;;;;3.60;2.40;;;6.30;99.90;;;;;;5077779;28;20537;-75
2024/01/31 00:44:13;;;;;;;6.00;2.53;;;6.30;99.90;;;;;;5094832;28;20447;-78
2024/01/31 00:46:44;;;;;;;5.80;2.70;;;6.30;99.90;;;;;;5095296;28;20400;-78
2024/01/31 00:49:10;;;;;;;5.53;2.57;;;6.20;99.90;;;;;;5095591;28;20439;-69
2024/01/31 00:51:36;;;;;;;5.10;2.33;;;6.30;99.90;;;;;;5095660;28;20748;-78
2024/01/31 00:54:01;;;;;;;3.23;2.93;;;6.30;99.90;;;;;;5094720;28;20180;-73
2024/01/31 00:56:27;;;;;;;4.30;2.20;;;6.30;99.90;;;;;;5095639;28;20555;-78
2024/01/31 00:58:53;;;;;;;2.87;2.50;;;6.20;99.90;;;;;;5095381;28;20173;-69
2024/01/31 01:01:18;;;;;;;8.87;2.10;;;6.20;99.90;;;;;;5095660;28;20177;-69
2024/01/31 01:03:44;;;;;;;4.03;2.00;;;6.20;99.90;;;;;;5094535;28;20189;-78
2024/01/31 01:06:10;;;;;;;7.30;2.17;;;6.30;99.90;;;;;;5094627;28;20288;-69
2024/01/31 01:08:36;;;;;;;4.63;2.27;;;6.30;99.90;;;;;;5095277;28;20268;-70
2024/01/31 01:11:01;;;;;;;4.00;2.07;;;6.20;99.90;;;;;;5095202;28;20687;-69
2024/01/31 01:13:27;;;;;;;6.93;2.47;;;6.20;99.90;;;;;;5094413;28;20522;-69
2024/01/31 01:15:53;;;;;;;3.43;2.23;;;6.10;99.90;;;;;;5095230;28;20530;-69
2024/01/31 01:18:18;;;;;;;3.90;3.20;;;6.10;99.90;;;;;;5077283;28;20630;-70
2024/01/31 01:20:45;;;;;;;6.13;2.60;;;6.10;99.90;;;;;;5095119;28;20572;-76
2024/01/31 01:23:13;;;;;;;7.57;3.80;;;6.10;99.90;;;;;;5093493;28;20195;-78
2024/01/31 01:25:39;;;;;;;6.90;2.90;;;6.10;99.90;;;;;;5094951;28;20416;-78
2024/01/31 01:28:05;;;;;;;4.53;2.53;;;6.20;99.90;;;;;;5094821;28;20970;-77
2024/01/31 01:30:31;;;;;;;11.40;3.30;;;6.10;99.90;;;;;;5094832;28;20270;-71
2024/01/31 01:32:56;;;;;;;8.00;2.70;;;6.10;99.90;;;;;;5093916;28;20403;-76
2024/01/31 01:35:22;;;;;;;8.43;2.60;;;6.10;99.90;;;;;;5076621;28;20192;-70
2024/01/31 01:37:48;;;;;;;5.67;2.97;;;6.10;99.90;;;;;;5094739;28;20172;-77
2024/01/31 01:40:15;;;;;;;10.70;3.30;;;6.10;99.90;;;;;;5094162;28;20192;-69
2024/01/31 01:42:41;;;;;;;8.30;3.00;;;6.10;99.90;;;;;;5094523;28;20404;-70
2024/01/31 01:45:08;;;;;;;7.23;2.73;;;6.10;99.90;;;;;;5093773;28;20430;-78
2024/01/31 01:47:34;;;;;;;4.10;3.00;;;6.10;99.90;;;;;;5094273;28;20174;-75
2024/01/31 01:50:02;;;;;;;9.07;2.80;;;6.10;99.90;;;;;;5094605;28;20900;-70
2024/01/31 01:52:29;;;;;;;3.07;2.60;;;6.10;99.90;;;;;;5094474;28;20409;-77
2024/01/31 01:54:56;;;;;;;3.87;2.40;;;6.10;99.90;;;;;;5093445;28;20426;-78
2024/01/31 01:57:22;;;;;;;3.63;2.90;;;6.10;99.90;;;;;;5093703;28;20395;-69
2024/01/31 01:59:47;;;;;;;3.23;2.90;;;6.10;99.90;;;;;;5094364;28;20761;-78
2024/01/31 02:02:13;;;;;;;5.93;2.90;;;6.10;99.90;;;;;;5094220;28;20439;-74
2024/01/31 02:04:39;;;;;;;5.83;2.80;;;6.10;99.90;;;;;;5093384;28;20275;-71
2024/01/31 02:07:05;;;;;;;7.23;3.20;;;6.10;99.90;;;;;;5094081;28;20185;-71
2024/01/31 02:09:32;;;;;;;7.30;3.60;;;6.10;99.90;;;;;;5093966;28;20232;-69
2024/01/31 02:11:58;;;;;;;7.43;3.27;;;6.10;99.90;;;;;;5094221;28;20797;-68
2024/01/31 02:14:24;;;;;;;8.00;4.00;;;6.20;99.90;;;;;;5093115;28;20502;-68
2024/01/31 02:16:49;;;;;;;5.37;3.10;;;6.10;99.90;;;;;;5093883;28;20166;-69
2024/01/31 02:19:15;;;;;;;7.23;3.20;;;6.10;99.90;;;;;;5093579;28;20522;-78
2024/01/31 02:21:43;;;;;;;12.53;3.90;;;6.00;99.90;;;;;;5093914;28;20169;-78
2024/01/31 02:24:09;;;;;;;8.40;3.47;;;6.00;99.90;;;;;;5092952;28;20286;-78
2024/01/31 02:26:35;;;;;;;7.90;3.47;;;6.00;99.90;;;;;;5076038;28;20421;-70
2024/01/31 02:29:01;;;;;;;4.30;3.07;;;6.00;99.90;;;;;;5075436;28;20467;-77
2024/01/31 02:31:27;;;;;;;2.77;2.23;;;6.00;99.90;;;;;;5093730;28;20396;-72
2024/01/31 02:33:52;;;;;;;2.73;2.50;;;5.90;99.90;;;;;;5092744;28;20256;-77
2024/01/31 02:36:18;;;;;;;5.10;2.40;;;6.00;99.90;;;;;;5093717;28;20157;-76
2024/01/31 02:38:45;;;;;;;6.10;2.60;;;6.00;99.90;;;;;;5093003;28;20626;-69
2024/01/31 02:41:10;;;;;;;3.03;2.50;;;5.80;99.90;;;;;;5093707;28;20176;-75
2024/01/31 02:43:36;;;;;;;8.30;2.80;;;5.80;99.90;;;;;;5092600;28;20395;-69
2024/01/31 02:46:02;;;;;;;8.30;2.70;;;5.90;99.90;;;;;;5093468;28;20261;-75
2024/01/31 02:48:27;;;;;;;6.90;2.80;;;5.90;99.90;;;;;;5075232;28;20204;-69
2024/01/31 02:50:53;;;;;;;6.60;3.20;;;5.90;99.90;;;;;;5093410;28;20161;-75
2024/01/31 02:53:19;;;;;;;5.30;2.80;;;5.90;99.90;;;;;;5092651;28;20162;-77
2024/01/31 02:55:44;;;;;;;12.70;3.50;;;6.00;99.90;;;;;;5093183;28;20185;-73
2024/01/31 02:58:11;;;;;;;13.37;3.70;;;5.90;99.90;;;;;;5092830;28;20538;-68
2024/01/31 03:00:37;;;;;;;5.97;2.53;;;5.80;99.90;;;;;;5092857;28;20221;-69
2024/01/31 03:03:03;;;;;;;10.00;3.20;;;5.90;99.90;;;;;;5092284;28;20877;-69
2024/01/31 03:05:29;;;;;;;7.10;2.50;;;5.90;99.90;;;;;;5093097;28;20318;-70
2024/01/31 03:07:54;;;;;;;8.23;2.70;;;5.90;99.90;;;;;;5093109;28;20264;-73
2024/01/31 03:10:20;;;;;;;11.53;2.73;;;5.80;99.90;;;;;;5075372;28;20169;-70
2024/01/31 03:12:46;;;;;;;12.63;4.13;;;5.80;99.90;;;;;;5092987;28;20224;-72
2024/01/31 03:15:11;;;;;;;9.87;2.57;;;5.80;99.90;;;;;;5091891;28;20185;-77
2024/01/31 03:17:37;;;;;;;5.13;1.97;;;5.80;99.90;;;;;;5093044;28;20166;-69
2024/01/31 03:20:05;;;;;;;6.60;2.40;;;5.80;99.90;;;;;;5092961;28;20166;-75
2024/01/31 03:22:31;;;;;;;4.30;2.43;;;5.80;99.90;;;;;;5075021;28;20632;-78
2024/01/31 03:24:57;;;;;;;2.50;2.30;;;5.80;99.90;;;;;;5092002;28;20438;-77
2024/01/31 03:27:22;;;;;;;10.30;2.30;;;5.80;99.90;;;;;;5092994;28;20400;-70
2024/01/31 03:29:48;;;;;;;4.00;2.37;;;5.80;99.90;;;;;;5092714;28;20594;-72
2024/01/31 03:32:14;;;;;;;9.50;2.90;;;5.70;99.90;;;;;;5074615;28;20192;-70
2024/01/31 03:34:39;;;;;;;9.23;2.60;;;5.70;99.90;;;;;;5092082;28;20189;-69
2024/01/31 03:37:05;;;;;;;7.23;2.50;;;5.80;99.90;;;;;;5092894;28;20169;-77
2024/01/31 03:39:32;;;;;;;6.17;2.63;;;5.80;99.90;;;;;;5092877;28;20678;-70
2024/01/31 03:41:58;;;;;;;2.20;2.00;;;5.80;99.90;;;;;;5092901;28;20638;-68
2024/01/31 03:44:24;;;;;;;3.20;2.53;;;5.70;99.90;;;;;;5091845;28;20427;-70
2024/01/31 03:46:49;;;;;;;5.57;2.23;;;5.70;99.90;;;;;;5092465;28;20411;-77
2024/01/31 03:49:15;;;;;;;3.73;2.40;;;5.70;99.90;;;;;;5092566;28;20657;-69
2024/01/31 03:51:41;;;;;;;9.17;3.10;;;5.70;99.90;;;;;;5092839;28;20518;-78
2024/01/31 03:54:06;;;;;;;3.10;2.37;;;5.70;99.90;;;;;;5091665;28;20642;-76
2024/01/31 03:56:32;;;;;;;10.73;2.37;;;5.60;99.90;;;;;;5092841;28;20201;-77
2024/01/31 03:58:58;;;;;;;7.63;3.10;;;5.60;99.90;;;;;;5092764;28;20199;-78
2024/01/31 04:01:23;;;;;;;6.80;2.70;;;5.60;99.90;;;;;;5092731;28;20173;-70
2024/01/31 04:03:49;;;;;;;6.90;2.80;;;5.60;99.90;;;;;;5073896;28;20212;-74
2024/01/31 04:06:15;;;;;;;11.17;2.60;;;5.60;99.90;;;;;;5092385;28;20194;-73
2024/01/31 04:08:40;;;;;;;4.93;2.57;;;5.60;99.90;;;;;;5092156;28;20276;-77
2024/01/31 04:11:06;;;;;;;4.80;2.60;;;5.60;99.90;;;;;;5094527;28;20673;-69
2024/01/31 04:13:32;;;;;;;4.27;3.00;;;5.70;99.90;;;;;;5077638;28;20184;-68
2024/01/31 04:15:58;;;;;;;7.60;2.50;;;5.70;99.90;;;;;;5096334;28;20209;-69
2024/01/31 04:18:24;;;;;;;11.00;2.73;;;5.70;99.90;;;;;;5096199;28;20162;-69
2024/01/31 04:20:50;;;;;;;9.20;3.20;;;5.70;99.90;;;;;;5096307;28;20411;-76
2024/01/31 04:23:15;;;;;;;3.83;2.83;;;5.60;99.90;;;;;;5095404;28;20791;-78
2024/01/31 04:25:41;;;;;;;5.50;2.30;;;5.50;99.90;;;;;;5096129;28;20447;-72
2024/01/31 04:28:07;;;;;;;7.73;3.13;;;5.40;99.90;;;;;;5095531;28;20247;-69
2024/01/31 04:30:33;;;;;;;8.60;2.50;;;5.40;99.90;;;;;;5077798;28;20215;-76
2024/01/31 04:33:02;;;;;;;11.83;5.40;;;5.40;99.90;;;;;;5095175;28;20194;-69
2024/01/31 04:35:28;;;;;;;5.13;2.50;;;5.40;99.90;;;;;;5095954;28;20275;-68
2024/01/31 04:37:54;;;;;;;5.40;2.50;;;5.30;77.60;;;;;;5096064;28;20407;-70
2024/01/31 04:40:19;;;;;;;7.80;3.93;;;5.30;11.50;;;;;;5095850;28;20445;-73
2024/01/31 04:42:47;;;;;;;15.00;2.70;;;5.30;1.00;;;;;;5077786;28;20764;-69
2024/01/31 04:45:16;;;;;;;5.30;2.57;;;5.40;1.00;;;;;;5095282;28;20184;-68
2024/01/31 04:47:41;;;;;;;12.60;3.20;;;5.30;1.00;;;;;;5077217;28;20418;-78
2024/01/31 04:50:08;;;;;;;3.50;2.07;;;5.40;1.00;;;;;;5077573;28;20415;-69
2024/01/31 04:52:33;;;;;;;6.37;2.70;;;5.40;1.00;;;;;;5095714;28;20404;-71
2024/01/31 04:54:59;;;;;;;5.83;2.73;;;5.50;1.00;;;;;;5094616;28;20502;-69
2024/01/31 04:57:25;;;;;;;11.23;3.17;;;5.50;1.00;;;;;;5095685;28;20170;-72
2024/01/31 04:59:50;;;;;;;5.17;2.43;;;5.50;1.00;;;;;;5095589;28;20660;-73
2024/01/31 05:02:16;;;;;;;14.40;2.67;;;5.50;1.00;;;;;;5095475;28;20166;-73
2024/01/31 05:04:42;;;;;;;10.53;2.90;;;5.50;1.00;;;;;;5094451;28;20196;-72
2024/01/31 05:07:07;;;;;;;9.30;2.80;;;5.50;1.00;;;;;;5094766;28;20185;-78
2024/01/31 05:09:34;;;;;;;5.53;2.70;;;5.60;1.00;;;;;;5095228;28;20322;-78
2024/01/31 05:12:00;;;;;;;4.10;2.07;;;5.60;99.90;;;;;;5095437;28;20182;-68
2024/01/31 05:14:26;;;;;;;9.80;4.17;;;5.60;99.90;;;;;;5076390;28;20432;-69
2024/01/31 05:16:51;;;;;;;10.63;3.50;;;5.60;99.90;;;;;;5095075;28;20165;-75
2024/01/31 05:19:17;;;;;;;4.97;2.87;;;5.60;99.90;;;;;;5095248;28;20172;-68
2024/01/31 05:21:48;;;;;;;10.17;2.57;;;5.60;99.90;;;;;;5076921;28;20633;-70
2024/01/31 05:24:14;;;;;;;5.40;2.53;;;5.60;99.90;;;;;;5093805;28;20259;-78
2024/01/31 05:26:42;;;;;;;8.27;2.80;;;5.60;99.90;;;;;;5094600;28;20944;-70
2024/01/31 05:29:07;;;;;;;6.83;3.10;;;5.60;99.90;;;;;;5094817;28;20451;-69
2024/01/31 05:31:33;;;;;;;10.90;3.80;;;5.70;99.90;;;;;;5094865;28;20941;-77
2024/01/31 05:33:59;;;;;;;3.07;2.53;;;5.70;99.90;;;;;;5075898;28;20177;-77
2024/01/31 05:36:24;;;;;;;5.80;2.70;;;5.70;99.90;;;;;;5076796;28;20190;-78
2024/01/31 05:38:50;;;;;;;6.90;2.60;;;5.70;99.90;;;;;;5094717;28;20180;-75
2024/01/31 05:41:16;;;;;;;2.53;2.33;;;5.70;99.90;;;;;;5094721;28;20169;-69
2024/01/31 05:43:42;;;;;;;5.40;2.70;;;5.70;99.90;;;;;;5093099;28;20181;-78
2024/01/31 05:46:08;;;;;;;6.43;3.90;;;5.60;99.90;;;;;;5094576;28;20186;-69
2024/01/31 05:48:33;;;;;;;4.80;2.60;;;5.60;99.90;;;;;;5094590;28;20186;-72
2024/01/31 05:50:59;;;;;;;6.73;3.17;;;5.70;99.90;;;;;;5094477;28;20396;-69
2024/01/31 05:53:25;;;;;;;6.80;3.20;;;5.60;99.90;;;;;;5093595;28;20184;-76
2024/01/31 05:55:50;;;;;;;3.90;2.70;;;5.70;99.90;;;;;;5076194;28;20288;-69
2024/01/31 05:58:19;;;;;;;11.00;3.00;;;5.60;99.90;;;;;;5094287;28;20158;-69
2024/01/31 06:00:46;;;;;;;7.40;2.50;;;5.60;99.90;;;;;;5094376;28;20166;-77
2024/01/31 06:03:12;;;;;;;18.40;3.80;;;5.70;99.90;;;;;;5092740;28;20452;-69
2024/01/31 06:05:38;;;;;;;5.57;2.83;;;5.80;99.90;;;;;;5076217;28;20443;-70
2024/01/31 06:08:04;;;;;;;6.50;2.73;;;5.80;99.90;;;;;;5076222;28;20233;-77
2024/01/31 06:10:29;;;;;;;4.83;2.37;;;5.70;99.90;;;;;;5094187;28;20162;-75
2024/01/31 06:12:55;;;;;;;5.80;2.40;;;5.70;99.90;;;;;;5093225;28;20919;-69
2024/01/31 06:15:21;;;;;;;9.83;3.10;;;5.80;99.90;;;;;;5093907;28;20580;-78
2024/01/31 06:17:47;;;;;;;6.40;2.27;;;5.80;99.90;;;;;;5094070;28;20158;-69
2024/01/31 06:20:12;;;;;;;7.20;3.03;;;5.80;99.90;;;;;;5075535;28;20168;-69
2024/01/31 06:22:38;;;;;;;10.33;2.90;;;5.80;99.90;;;;;;5075600;28;20883;-78
2024/01/31 06:25:04;;;;;;;4.93;3.50;;;5.80;99.90;;;;;;5092900;28;20196;-70
2024/01/31 06:27:30;;;;;;;4.70;2.37;;;5.80;99.90;;;;;;5075812;28;20538;-73
2024/01/31 06:29:56;;;;;;;8.77;2.50;;;5.80;99.90;;;;;;5093797;28;20447;-71
2024/01/31 06:32:30;;;;;;;11.70;4.13;;;5.80;99.90;;;;;;5093771;28;20943;-75
2024/01/31 06:34:56;;;;;;;15.73;4.37;;;5.70;99.90;;;;;;5091958;28;20173;-69
2024/01/31 06:37:21;;;;;;;10.80;2.90;;;5.70;99.90;;;;;;5093683;28;20403;-72
2024/01/31 06:39:47;;;;;;;15.83;3.30;;;5.80;99.90;;;;;;5093062;28;20177;-69
2024/01/31 06:42:13;;;;;;;15.27;3.77;;;5.70;99.90;;;;;;5093041;28;20174;-72
2024/01/31 06:44:39;;;;;;;6.13;2.90;;;5.70;99.90;;;;;;5074682;28;20779;-69
2024/01/31 06:47:05;;;;;;;12.13;2.67;;;5.60;99.90;;;;;;5073277;28;20192;-74
2024/01/31 06:49:31;;;;;;;7.70;3.23;;;5.70;99.90;;;;;;5073127;28;20673;-73
2024/01/31 06:51:57;;;;;;;6.17;2.50;;;5.70;99.90;;;;;;5073257;28;20994;-78
2024/01/31 06:54:23;;;;;;;9.70;3.93;;;5.70;99.90;;;;;;5072194;28;20503;-69
2024/01/31 06:56:48;;;;;;;4.50;2.53;;;5.70;99.90;;;;;;5055404;28;20408;-69
2024/01/31 06:59:14;;;;;;;11.43;3.10;;;5.70;99.90;;;;;;5072738;28;20174;-79
2024/01/31 07:01:40;;;;;;;6.90;2.63;;;5.70;99.90;;;;;;5072995;28;20170;-77
2024/01/31 07:04:05;;;;;;;3.60;2.83;;;5.70;99.90;;;;;;5072104;28;20189;-71
2024/01/31 07:06:31;;;;;;;22.10;5.00;;;5.70;99.90;;;;;;5054873;28;20193;-69
2024/01/31 07:08:57;;;;;;;7.17;3.63;;;5.70;99.90;;;;;;5072794;28;20194;-74
2024/01/31 07:11:22;;;;;;;3.60;2.50;;;5.70;99.90;;;;;;5055070;28;20163;-69
2024/01/31 07:13:48;;;;;;;14.27;3.83;;;5.70;99.90;;;;;;5071912;28;20170;-75
2024/01/31 07:16:14;;;;;;;8.80;3.20;;;5.70;99.90;;;;;;5072294;28;20257;-76
2024/01/31 07:18:43;;;;;;;11.40;2.40;;;5.70;99.90;;;;;;5072922;28;20657;-73
2024/01/31 07:21:09;;;;;;;6.50;3.70;;;5.60;99.90;;;;;;5072920;28;20170;-78
2024/01/31 07:23:36;;;;;;;11.93;3.33;;;5.60;99.90;;;;;;5071866;28;20396;-69
2024/01/31 07:26:02;;;;;;;7.03;2.77;;;5.60;99.90;;;;;;5072711;28;20428;-73
2024/01/31 07:28:28;;;;;;;3.97;2.63;;;5.60;99.90;;;;;;5072782;28;20490;-78
2024/01/31 07:30:53;;;;;;;14.03;4.23;;;5.60;99.90;;;;;;5072731;28;20424;-76
2024/01/31 07:33:19;;;;;;;10.70;4.80;;;5.60;99.90;;;;;;5071478;28;20396;-68
2024/01/31 07:35:45;;;;;;;12.23;4.57;;;5.60;99.90;;;;;;5072609;28;20178;-69
2024/01/31 07:38:11;;;;;;;6.33;2.60;;;5.60;99.90;;;;;;5072579;28;20423;-69
2024/01/31 07:40:38;;;;;;;14.80;3.50;;;5.50;99.90;;;;;;5072830;28;20400;-78
2024/01/31 07:43:04;;;;;;;6.17;2.37;;;5.50;99.90;;;;;;5053719;28;20177;-69
2024/01/31 07:45:29;;;;;;;10.67;2.30;;;5.50;99.90;;;;;;5073523;28;20420;-78
2024/01/31 07:47:56;;;;;;;9.10;3.03;;;5.40;99.90;;;;;;5076500;28;20455;-78
2024/01/31 07:50:22;;;;;;;9.53;3.00;;;5.40;99.90;;;;;;5076164;28;20196;-68
2024/01/31 07:52:48;;;;;;;17.60;3.73;;;5.40;99.90;;;;;;5058187;28;20420;-73
2024/01/31 07:55:14;;;;;;;3.40;2.83;;;5.40;99.90;;;;;;5058734;28;20432;-69
2024/01/31 07:57:40;;;;;;;5.53;2.87;;;5.30;99.60;;;;;;5076530;28;21125;-79
2024/01/31 08:00:07;;;;;;;4.13;3.07;;;5.30;99.60;;;;;;5076331;28;20193;-70
2024/01/31 08:02:33;;;;;;;11.23;5.60;;;5.30;97.00;;;;;;5076470;28;20408;-75
2024/01/31 08:04:59;;;;;;;13.07;3.30;;;5.30;96.20;;;;;;5075128;28;20932;-78
2024/01/31 08:07:24;;;;;;;4.77;3.33;;;5.30;95.80;;;;;;5075781;28;20465;-77
2024/01/31 08:09:50;;;;;;;12.47;3.03;;;5.30;97.50;;;;;;5058194;28;20202;-79
2024/01/31 08:12:18;;;;;;;7.17;3.17;;;5.30;94.10;;;;;;5076090;28;20465;-69
2024/01/31 08:14:44;;;;;;;6.57;2.30;;;5.40;94.10;;;;;;5074883;28;20273;-76
2024/01/31 08:17:10;;;;;;;4.50;2.50;;;5.40;90.80;;;;;;5076233;28;20817;-69
2024/01/31 08:19:36;;;;;;;16.27;6.40;;;5.40;90.80;;;;;;5076067;28;20411;-79
2024/01/31 08:22:02;;;;;;;11.07;4.37;;;5.30;90.80;;;;;;5075823;28;20499;-73
2024/01/31 08:24:28;;;;;;;2.57;2.30;;;5.30;90.80;;;;;;5074557;28;20196;-74
2024/01/31 08:26:53;;;;;;;11.67;2.87;;;5.30;90.80;;;;;;5075993;28;20407;-79
2024/01/31 08:29:20;;;;;;;4.33;2.77;;;5.30;90.80;;;;;;5075944;28;20705;-77
2024/01/31 08:31:46;;;;;;;11.00;3.73;;;5.30;90.80;;;;;;5075868;28;20158;-72
2024/01/31 08:34:12;;;;;;;6.27;2.70;;;5.30;90.90;;;;;;5074839;28;20412;-68
2024/01/31 08:36:37;;;;;;;5.77;2.97;;;5.40;93.50;;;;;;5075716;28;20173;-78
2024/01/31 08:39:03;;;;;;;8.33;2.80;;;5.40;90.80;;;;;;5075705;28;20190;-68
2024/01/31 08:41:29;;;;;;;3.90;2.00;;;5.40;90.80;;;;;;5075173;28;20178;-73
2024/01/31 08:43:54;;;;;;;16.60;2.97;;;5.40;90.80;;;;;;5074698;28;20529;-69
2024/01/31 08:46:20;;;;;;;14.07;3.50;;;5.40;90.80;;;;;;5057916;28;20188;-78
2024/01/31 08:48:46;;;;;;;13.60;3.70;;;5.60;90.90;;;;;;5078539;28;20257;-77
2024/01/31 08:51:14;;;;;;;6.00;3.20;;;5.60;90.90;;;;;;5095784;28;20178;-69
2024/01/31 08:53:42;;;;;;;7.33;3.13;;;5.60;90.90;;;;;;5094637;28;20490;-68
2024/01/31 08:56:11;;;;;;;8.50;3.33;;;5.60;87.10;;;;;;5095443;28;20492;-69
2024/01/31 08:58:37;;;;;;;7.73;3.20;;;5.60;78.40;;;;;;5094579;28;20810;-76
2024/01/31 09:01:07;;;;;;;6.40;3.40;;;5.50;76.50;;;;;;5095085;28;20445;-73
2024/01/31 09:03:32;;;;;;;7.17;3.23;;;5.60;82.90;;;;;;5094328;28;20446;-69
2024/01/31 09:05:58;;;;;;;10.90;3.37;;;5.60;81.80;;;;;;5095348;28;20478;-78
2024/01/31 09:08:24;;;;;;;4.53;2.57;;;5.60;83.50;;;;;;5095321;28;20201;-77
2024/01/31 09:10:50;;;;;;;11.30;3.93;;;5.70;85.00;;;;;;5095191;28;20169;-69
2024/01/31 09:13:15;;;;;;;6.40;2.37;;;5.80;90.30;;;;;;5094508;28;20442;-78
2024/01/31 09:15:41;;;;;;;5.70;2.60;;;5.80;84.40;;;;;;5095205;28;20280;-78
2024/01/31 09:18:07;;;;;;;10.30;2.20;;;5.80;75.00;;;;;;5095206;28;20171;-72
2024/01/31 09:20:33;;;;;;;5.20;2.63;;;5.90;80.20;;;;;;5094624;28;20223;-76
2024/01/31 09:22:58;;;;;;;8.63;3.00;;;5.90;72.00;;;;;;5093929;28;20181;-77
2024/01/31 09:25:24;;;;;;;11.47;3.80;;;5.90;72.50;;;;;;5095031;28;20189;-70
2024/01/31 09:27:50;;;;;;;6.70;2.73;;;6.00;72.90;;;;;;5095074;28;20170;-78
2024/01/31 09:30:15;;;;;;;3.93;2.73;;;6.10;64.20;;;;;;5076794;28;20166;-69
2024/01/31 09:32:41;;;;;;;9.80;3.70;;;6.10;55.20;;;;;;5094709;28;20178;-76
2024/01/31 09:35:07;;;;;;;9.33;3.03;;;6.10;59.00;;;;;;5094038;28;20454;-71
2024/01/31 09:37:33;;;;;;;8.83;2.60;;;6.10;50.20;;;;;;5094753;28;20176;-75
2024/01/31 09:39:59;;;;;;;6.47;2.80;;;6.20;45.80;;;;;;5076320;28;20174;-79
2024/01/31 09:42:26;;;;;;;7.13;2.77;;;6.20;45.10;;;;;;5094695;28;20292;-72
2024/01/31 09:44:55;;;;;;;6.73;3.30;;;6.20;42.90;;;;;;5093677;28;20809;-69
2024/01/31 09:47:26;;;;;;;6.97;3.10;;;6.30;44.30;;;;;;5094636;28;20400;-77
2024/01/31 09:49:51;;;;;;;9.30;3.73;;;6.30;38.10;;;;;;5094468;28;20490;-71
2024/01/31 09:52:24;;;;;;;4.03;2.80;;;6.30;31.90;;;;;;5094489;28;20423;-68
2024/01/31 09:54:50;;;;;;;10.83;2.23;;;6.40;37.10;;;;;;5093573;28;20322;-70
2024/01/31 09:57:17;;;;;;;10.03;2.90;;;6.50;29.10;;;;;;5094281;28;20474;-74
2024/01/31 09:59:43;;;;;;;3.03;2.57;;;6.50;25.80;;;;;;5075912;28;20418;-78
2024/01/31 10:02:10;;;;;;;4.63;4.23;;;6.60;25.00;;;;;;5094311;28;20896;-68
2024/01/31 10:04:35;;;;;;;3.03;2.53;;;6.50;13.50;;;;;;5075504;28;20432;-73
2024/01/31 10:07:01;;;;;;;4.77;2.67;;;6.50;9.40;;;;;;5076242;28;20442;-69
2024/01/31 10:09:27;;;;;;;7.33;2.17;;;6.60;8.60;;;;;;5093993;28;20193;-71
2024/01/31 10:11:52;;;;;;;10.20;3.50;;;6.70;9.60;;;;;;5094329;28;20170;-78
2024/01/31 10:14:18;;;;;;;4.13;2.30;;;6.60;1.00;;;;;;5093110;28;20272;-68
2024/01/31 10:16:44;;;;;;;9.80;2.80;;;6.60;1.00;;;;;;5093942;28;20169;-72
2024/01/31 10:19:09;;;;;;;6.80;2.70;;;6.60;1.00;;;;;;5093623;28;20583;-78
2024/01/31 10:21:36;;;;;;;5.90;3.00;;;6.50;1.00;;;;;;5093996;28;20165;-69
2024/01/31 10:24:02;;;;;;;7.20;2.27;;;6.50;1.00;;;;;;5093043;28;20173;-70
2024/01/31 10:26:29;;;;;;;6.40;3.37;;;6.50;1.00;;;;;;5093997;28;20475;-79
2024/01/31 10:28:57;;;;;;;13.17;2.93;;;6.60;1.00;;;;;;5093743;28;20454;-77
2024/01/31 10:31:22;;;;;;;8.33;2.50;;;6.60;1.00;;;;;;5093746;28;20864;-70
2024/01/31 10:33:49;;;;;;;2.83;2.33;;;6.50;1.00;;;;;;5092944;28;20392;-71
2024/01/31 10:36:18;;;;;;;12.10;3.00;;;6.50;1.00;;;;;;5093110;28;20615;-77
2024/01/31 10:38:44;;;;;;;18.00;3.40;;;6.60;1.00;;;;;;5093697;28;20478;-70
2024/01/31 10:41:12;;;;;;;10.00;2.90;;;6.60;1.00;;;;;;5075685;28;20406;-78
2024/01/31 10:43:40;;;;;;;5.00;2.47;;;6.70;1.00;;;;;;5092645;28;20791;-69
2024/01/31 10:46:05;;;;;;;4.93;2.57;;;6.60;1.00;;;;;;5093540;28;20434;-77
2024/01/31 10:48:31;;;;;;;12.30;3.50;;;6.60;1.00;;;;;;5075296;28;20455;-78
2024/01/31 10:51:00;;;;;;;12.57;3.23;;;6.60;1.00;;;;;;5075608;28;20631;-78
2024/01/31 10:53:28;;;;;;;4.70;4.23;;;6.60;1.00;;;;;;5092522;28;20161;-74
2024/01/31 10:55:56;;;;;;;9.33;4.00;;;6.60;1.00;;;;;;5092782;28;20415;-74
2024/01/31 10:58:22;;;;;;;5.60;4.20;;;6.60;1.00;;;;;;5093320;28;20407;-79
2024/01/31 11:00:49;;;;;;;5.63;3.23;;;6.60;1.00;;;;;;5093362;28;20419;-76
2024/01/31 11:03:16;;;;;;;11.63;3.20;;;6.50;1.00;;;;;;5092463;28;20411;-70
2024/01/31 11:05:42;;;;;;;8.07;3.30;;;6.60;1.00;;;;;;5093030;28;20455;-71
2024/01/31 11:08:21;;;;;;;5.60;3.10;;;6.60;1.00;;;;;;5093134;28;20443;-73
2024/01/31 11:10:47;;;;;;;9.13;3.30;;;6.60;1.00;;;;;;5093036;28;20366;-76
2024/01/31 11:13:14;;;;;;;5.77;2.70;;;6.60;1.00;;;;;;5092411;28;20387;-69
2024/01/31 11:15:40;;;;;;;5.47;2.43;;;6.50;1.00;;;;;;5092344;28;20415;-70
2024/01/31 11:18:14;;;;;;;9.63;3.50;;;6.50;1.00;;;;;;5093190;28;20403;-70
2024/01/31 11:20:44;;;;;;;8.23;2.90;;;6.60;1.00;;;;;;5092737;28;20435;-69
2024/01/31 11:23:15;;;;;;;11.70;2.63;;;6.70;1.00;;;;;;5092208;28;20528;-70
2024/01/31 11:25:41;;;;;;;5.60;2.90;;;6.60;1.00;;;;;;5092819;28;20390;-76
2024/01/31 11:28:11;;;;;;;10.47;3.00;;;6.50;1.00;;;;;;5092802;28;20462;-70
2024/01/31 11:30:39;;;;;;;4.27;2.70;;;6.40;1.00;;;;;;5093051;28;20411;-69
2024/01/31 11:33:06;;;;;;;15.20;3.07;;;6.40;1.00;;;;;;5091859;28;20929;-76
2024/01/31 11:35:32;;;;;;;4.90;2.57;;;6.40;1.00;;;;;;5092396;28;20423;-70
2024/01/31 11:37:59;;;;;;;5.23;2.63;;;6.40;1.00;;;;;;5092840;28;20394;-70
2024/01/31 11:40:25;;;;;;;3.33;2.70;;;6.40;1.00;;;;;;5075073;28;20407;-71
2024/01/31 11:42:53;;;;;;;5.90;2.70;;;6.40;1.00;;;;;;5091953;28;20495;-77
2024/01/31 11:45:23;;;;;;;5.20;2.60;;;6.40;1.00;;;;;;5092823;28;20843;-68
2024/01/31 11:47:50;;;;;;;6.33;2.87;;;6.30;1.00;;;;;;5092732;28;20407;-69
2024/01/31 11:50:17;;;;;;;4.93;2.20;;;6.20;1.00;;;;;;5084924;28;20417;-69
2024/01/31 11:52:44;;;;;;;8.70;3.23;;;6.20;1.00;;;;;;5071982;28;20420;-70
2024/01/31 11:55:11;;;;;;;3.57;2.70;;;6.20;1.00;;;;;;5071785;28;20491;-78
2024/01/31 11:57:40;;;;;;;7.57;3.27;;;6.20;1.00;;;;;;5072567;28;20393;-76
2024/01/31 12:00:06;;;;;;;4.90;2.63;;;6.30;1.00;;;;;;5072386;28;20404;-76
2024/01/31 12:02:32;;;;;;;3.87;2.70;;;6.30;1.00;;;;;;5072551;28;20432;-76
2024/01/31 12:04:58;;;;;;;2.70;1.80;;;6.40;1.00;;;;;;5071474;28;20766;-69
2024/01/31 12:07:24;;;;;;;13.83;3.43;;;6.40;1.00;;;;;;5072402;28;20462;-77
2024/01/31 12:09:50;;;;;;;10.13;2.47;;;6.30;1.00;;;;;;5072372;28;20444;-68
2024/01/31 12:12:16;;;;;;;9.13;3.17;;;6.20;1.00;;;;;;5072134;28;20396;-73
2024/01/31 12:14:42;;;;;;;4.07;2.10;;;6.10;1.00;;;;;;5071115;28;20508;-69
2024/01/31 12:17:21;;;;;;;6.40;3.20;;;6.10;1.00;;;;;;5072411;28;20391;-69
2024/01/31 12:19:47;;;;;;;4.63;2.60;;;6.20;1.00;;;;;;5072263;28;20495;-73
2024/01/31 12:22:12;;;;;;;5.00;2.70;;;6.30;1.00;;;;;;5072200;28;20515;-78
2024/01/31 12:24:38;;;;;;;6.67;2.80;;;6.30;1.00;;;;;;5080899;28;20447;-76
2024/01/31 12:27:04;;;;;;;5.00;3.37;;;6.20;1.00;;;;;;5092417;28;20161;-70
2024/01/31 12:29:31;;;;;;;8.67;3.60;;;6.10;1.00;;;;;;5092309;28;20671;-70
2024/01/31 12:31:57;;;;;;;5.53;3.10;;;6.10;1.00;;;;;;5092016;28;20403;-72
2024/01/31 12:34:23;;;;;;;4.13;2.50;;;6.10;1.00;;;;;;5094989;28;20422;-74
2024/01/31 12:36:48;;;;;;;3.77;3.23;;;6.10;1.00;;;;;;5096060;28;20470;-76
2024/01/31 12:39:19;;;;;;;4.13;2.83;;;6.00;1.00;;;;;;5096073;28;20197;-76
2024/01/31 12:41:45;;;;;;;5.10;2.33;;;6.00;1.00;;;;;;5095896;28;20165;-68
2024/01/31 12:44:11;;;;;;;2.70;2.40;;;5.90;1.00;;;;;;5094836;28;20915;-77
2024/01/31 12:46:39;;;;;;;2.67;2.47;;;6.00;1.00;;;;;;5077885;28;20415;-71
2024/01/31 12:49:05;;;;;;;3.00;2.17;;;6.10;1.00;;;;;;5095178;28;20447;-72
2024/01/31 12:51:31;;;;;;;2.57;2.30;;;6.00;1.00;;;;;;5077927;28;20408;-69